Buoy 41936

sailwx.info

Track history (hours):
 
Tides and Currents Weather Stations Pressure Air Temp Water Temp Dewpoint Dewpoint Depression Visibility Wind Speed Wind Dir Waves Ship Positions

Drifting buoy 41936

Last reported at 2016-Dec-24 05:00 UTC. Time now 2017-Sep-26 05:58 UTC.
Position N 39°52' W 034°31'.
Warning: this ship's position is months out of date.

Barometer 1027.9 mb

Date/timePositionNaut miles runAvg speedWind from/ knotsBaromVisibWave heightAir tempDewpointWater temp
2016-Dec-24 05:00N 39°52' W 034°31'1312.9 1027.9
2016-Dec-24 04:00N 39°59' W 034°16'13 2.1 1028.4
2016-Dec-23 22:00N 39°52' W 034°31'2 0.6 1030.7
2016-Dec-23 19:00N 39°52' W 034°33'2 2.2 1031.2
2016-Dec-23 18:00N 39°50' W 034°35'0 0.0 1031.0
2016-Dec-23 17:00N 39°50' W 034°35'0 0.0 1031.4
2016-Dec-23 16:00N 39°50' W 034°35'5 1.4 1031.5
2016-Dec-23 12:00N 39°47' W 034°41'0 0.0 1033.3
2016-Dec-23 11:00N 39°47' W 034°41'14 1.0 1032.8
2016-Dec-22 21:00N 39°38' W 034°54'   1029.8
Track history (hours):
 
Tides and Currents Weather Stations Pressure Air Temp Water Temp Dewpoint Dewpoint Depression Visibility Wind Speed Wind Dir Waves Ship Positions

Drifting buoy 41936

Last reported at 2016-Dec-24 05:00 UTC. Time now 2017-Sep-26 05:58 UTC.
Position N 39°52' W 034°31'.
Warning: this ship's position is months out of date.

Barometer 1027.9 mb

Date/timePositionNaut miles runAvg speedWind from/ knotsBaromVisibWave heightAir tempDewpointWater temp
2016-Dec-24 05:00N 39°52' W 034°31'1312.9 1027.9
2016-Dec-24 04:00N 39°59' W 034°16'13 2.1 1028.4
2016-Dec-23 22:00N 39°52' W 034°31'2 0.6 1030.7
2016-Dec-23 19:00N 39°52' W 034°33'2 2.2 1031.2
2016-Dec-23 18:00N 39°50' W 034°35'0 0.0 1031.0
2016-Dec-23 17:00N 39°50' W 034°35'0 0.0 1031.4
2016-Dec-23 16:00N 39°50' W 034°35'5 1.4 1031.5
2016-Dec-23 12:00N 39°47' W 034°41'0 0.0 1033.3
2016-Dec-23 11:00N 39°47' W 034°41'14 1.0 1032.8
2016-Dec-22 21:00N 39°38' W 034°54'   1029.8

Dump ship's entire track history